Time;durP1;ratioP1;P1;durP2;ratioP2;P2;SDS_P1;SDS_P2;PMS_P1;PMS_P2;Temp;Humidity;BMP_temperature;BMP_pressure;BME280_temperature;BME280_humidity;BME280_pressure;Samples;Min_cycle;Max_cycle;Signal;HPM_P1;HPM_P2
2023/10/30 00:01:25;;;;;;;;;2.00;2.00;;;;;13.93;81.71;99720.16;5038390;28;45344;-40
2023/10/30 00:03:51;;;;;;;;;5.67;2.67;;;;;13.93;81.35;99719.34;5038643;28;45435;-39
2023/10/30 00:06:16;;;;;;;;;3.33;2.33;;;;;13.93;81.36;99725.53;5037899;28;46247;-39
2023/10/30 00:08:42;;;;;;;;;2.33;2.00;;;;;13.92;81.67;99717.69;5038443;28;45336;-40
2023/10/30 00:11:07;;;;;;;;;9.67;1.33;;;;;13.89;81.59;99710.06;5038430;28;45334;-38
2023/10/30 00:13:32;;;;;;;;;2.33;2.33;;;;;13.84;81.88;99716.00;5038490;28;45476;-40
2023/10/30 00:15:58;;;;;;;;;3.00;2.00;;;;;13.82;81.74;99707.34;5038383;28;45962;-40
2023/10/30 00:18:23;;;;;;;;;2.00;1.00;;;;;13.84;81.56;99707.97;5038032;28;45489;-41
2023/10/30 00:20:49;;;;;;;;;9.67;3.00;;;;;13.80;81.89;99703.19;5037586;28;45450;-43
2023/10/30 00:23:14;;;;;;;;;4.67;2.00;;;;;13.77;81.79;99701.72;5038101;28;45912;-40
2023/10/30 00:25:40;;;;;;;;;3.00;1.67;;;;;13.81;81.62;99713.69;5037372;28;46396;-41
2023/10/30 00:28:05;;;;;;;;;1.67;1.33;;;;;13.84;81.41;99713.31;5037379;28;45312;-41
2023/10/30 00:30:30;;;;;;;;;1.67;0.00;;;;;13.82;81.40;99711.84;5038158;28;45392;-40
2023/10/30 00:32:56;;;;;;;;;1.00;1.00;;;;;13.85;81.14;99700.78;5038388;28;45331;-40
2023/10/30 00:35:21;;;;;;;;;3.33;2.00;;;;;13.81;81.51;99712.88;5037711;28;46029;-38
2023/10/30 00:37:46;;;;;;;;;4.00;2.33;;;;;13.79;81.70;99720.28;5037997;28;45250;-40
2023/10/30 00:40:12;;;;;;;;;2.00;0.67;;;;;13.82;81.65;99711.84;5037850;28;45520;-43
2023/10/30 00:42:38;;;;;;;;;2.00;1.00;;;;;13.81;81.35;99710.19;5038169;28;45346;-42
2023/10/30 00:45:06;;;;;;;;;7.67;3.00;;;;;13.80;81.44;99714.72;5037593;28;47117;-41
2023/10/30 00:47:34;;;;;;;;;5.00;3.33;;;;;13.77;81.62;99707.06;5019563;28;45284;-39
2023/10/30 00:49:59;;;;;;;;;4.00;2.00;;;;;13.76;81.74;99715.31;5037961;28;45304;-41
2023/10/30 00:52:25;;;;;;;;;3.33;2.67;;;;;13.72;81.11;99699.63;5037991;28;45308;-40
2023/10/30 00:54:50;;;;;;;;;4.00;1.67;;;;;13.69;81.68;99697.38;5037229;28;52349;-42
2023/10/30 00:57:16;;;;;;;;;5.33;2.33;;;;;13.70;81.64;99699.03;5037559;28;45340;-41
2023/10/30 00:59:41;;;;;;;;;7.33;2.00;;;;;13.72;81.76;99696.16;5037616;28;45449;-42
2023/10/30 01:02:06;;;;;;;;;3.33;2.00;;;;;13.72;81.75;99704.97;5037932;28;45348;-42
2023/10/30 01:04:32;;;;;;;;;0.67;0.33;;;;;13.69;81.75;99696.53;5037162;28;48828;-41
2023/10/30 01:06:58;;;;;;;;;4.00;2.00;;;;;13.69;81.67;99694.69;5037585;28;45384;-41
2023/10/30 01:09:23;;;;;;;;;2.00;2.00;;;;;13.71;81.56;99692.66;5037404;28;45269;-41
2023/10/30 01:11:48;;;;;;;;;5.33;2.67;;;;;13.70;81.67;99692.84;5037727;28;45308;-41
2023/10/30 01:14:14;;;;;;;;;1.33;1.33;;;;;13.71;81.72;99700.66;5037280;28;46104;-41
2023/10/30 01:16:39;;;;;;;;;4.33;1.33;;;;;13.68;81.70;99701.03;5037409;28;45471;-42
2023/10/30 01:19:05;;;;;;;;;3.67;2.00;;;;;13.67;81.40;99696.72;5019310;28;45427;-41
2023/10/30 01:21:30;;;;;;;;;2.00;2.00;;;;;13.67;81.56;99696.72;5037576;28;45393;-41
2023/10/30 01:23:56;;;;;;;;;4.67;2.00;;;;;13.66;81.90;99692.41;5019451;28;46167;-41
2023/10/30 01:26:21;;;;;;;;;2.67;1.00;;;;;13.61;81.59;99685.97;5037043;28;45296;-41
2023/10/30 01:28:46;;;;;;;;;4.67;0.67;;;;;13.63;81.74;99682.09;5037398;28;45217;-41
2023/10/30 01:31:12;;;;;;;;;1.00;1.00;;;;;13.62;81.67;99687.63;5037381;28;45258;-38
2023/10/30 01:33:37;;;;;;;;;7.33;2.00;;;;;13.55;81.44;99668.88;5037068;28;45357;-40
2023/10/30 01:36:03;;;;;;;;;2.00;2.00;;;;;13.58;81.41;99681.03;5036943;28;45218;-41
2023/10/30 01:38:28;;;;;;;;;2.33;2.00;;;;;13.57;81.37;99680.19;5036774;28;45425;-41
2023/10/30 01:40:53;;;;;;;;;2.67;1.00;;;;;13.54;82.15;99677.09;5037178;28;45336;-39
2023/10/30 01:43:32;;;;;;;;;3.67;1.67;;;;;13.53;81.72;99675.44;5036778;28;45981;-39
2023/10/30 01:45:58;;;;;;;;;3.00;2.00;;;;;13.51;82.16;99677.47;5037015;28;45336;-43
2023/10/30 01:48:27;;;;;;;;;1.00;1.00;;;;;13.46;82.33;99670.84;5036221;28;45295;-45
2023/10/30 01:50:53;;;;;;;;;4.67;2.00;;;;;13.16;82.27;99614.03;5037129;28;45436;-40
2023/10/30 01:53:20;;;;;;;;;4.00;1.00;;;;;13.45;82.33;99665.69;5036882;28;45419;-40
2023/10/30 01:55:47;;;;;;;;;3.00;1.00;;;;;13.40;82.55;99663.59;5036639;28;45455;-44
2023/10/30 01:58:12;;;;;;;;;3.00;1.67;;;;;13.34;82.95;99668.88;5036942;28;45400;-44
2023/10/30 02:00:38;;;;;;;;;6.00;2.00;;;;;13.31;82.96;99661.22;5019215;28;45502;-45
2023/10/30 02:03:04;;;;;;;;;6.00;1.33;;;;;13.27;83.15;99658.13;5036456;28;46189;-41
2023/10/30 02:05:29;;;;;;;;;5.33;2.00;;;;;13.15;83.14;99652.44;5036091;28;45181;-42
2023/10/30 02:07:55;;;;;;;;;3.00;2.00;;;;;13.17;83.56;99650.41;5037060;28;45470;-39
2023/10/30 02:10:21;;;;;;;;;5.67;3.33;;;;;13.17;83.77;99649.56;5037074;28;45230;-40
2023/10/30 02:12:50;;;;;;;;;4.00;1.00;;;;;13.11;83.31;99648.50;5036465;28;46000;-41
2023/10/30 02:15:16;;;;;;;;;6.33;1.00;;;;;13.12;83.74;99652.00;5036675;28;45386;-41
2023/10/30 02:17:41;;;;;;;;;2.00;2.00;;;;;13.01;84.01;99631.94;5036715;28;45329;-39
2023/10/30 02:20:07;;;;;;;;;1.67;1.00;;;;;13.07;84.12;99647.22;5035862;28;45317;-41
2023/10/30 02:22:32;;;;;;;;;2.67;1.00;;;;;13.06;84.12;99652.72;5036339;28;45479;-42
2023/10/30 02:24:58;;;;;;;;;3.67;2.67;;;;;13.05;83.79;99653.75;5036445;28;47344;-42
2023/10/30 02:27:24;;;;;;;;;4.00;2.33;;;;;13.04;84.41;99655.59;5036520;28;45274;-44
2023/10/30 02:29:49;;;;;;;;;2.00;1.33;;;;;13.03;84.00;99653.13;5036651;28;45194;-41
2023/10/30 02:32:14;;;;;;;;;4.33;1.33;;;;;13.01;84.16;99652.47;5036324;28;45451;-40
2023/10/30 02:34:40;;;;;;;;;3.00;3.00;;;;;13.01;84.31;99647.13;5036023;28;48102;-41
2023/10/30 02:37:05;;;;;;;;;6.33;2.00;;;;;12.98;85.04;99643.84;5035836;28;45307;-40
2023/10/30 02:39:33;;;;;;;;;3.00;2.00;;;;;12.95;84.56;99635.38;5036165;28;45387;-39
2023/10/30 02:41:59;;;;;;;;;5.00;3.00;;;;;12.94;84.09;99631.91;5036118;28;46919;-40
2023/10/30 02:44:25;;;;;;;;;4.00;3.00;;;;;12.90;85.05;99621.78;5036219;28;45417;-41
2023/10/30 02:46:50;;;;;;;;;3.67;2.00;;;;;12.90;84.92;99635.94;5036299;28;45407;-42
2023/10/30 02:49:16;;;;;;;;;8.67;4.00;;;;;12.88;84.77;99624.63;5035286;28;45299;-41
2023/10/30 02:51:41;;;;;;;;;2.33;2.33;;;;;12.88;84.93;99624.63;5035857;28;46126;-41
2023/10/30 02:54:07;;;;;;;;;4.00;2.00;;;;;12.87;85.46;99624.81;5036065;28;45402;-40
2023/10/30 02:56:32;;;;;;;;;7.00;2.00;;;;;12.86;85.12;99625.84;5036114;28;45441;-40
2023/10/30 02:58:59;;;;;;;;;2.00;1.00;;;;;12.84;85.36;99619.84;5036356;28;45491;-41
2023/10/30 03:01:24;;;;;;;;;0.67;0.67;;;;;12.83;85.55;99612.88;5035751;28;46903;-42
2023/10/30 03:03:50;;;;;;;;;2.00;1.00;;;;;12.81;84.83;99613.06;5035542;28;45375;-41
2023/10/30 03:06:15;;;;;;;;;1.00;1.00;;;;;12.82;85.51;99613.91;5035866;28;45340;-41
2023/10/30 03:08:40;;;;;;;;;6.33;3.33;;;;;12.80;85.03;99615.91;5035165;28;45329;-41
2023/10/30 03:11:07;;;;;;;;;5.33;2.00;;;;;12.78;85.20;99621.44;5035733;28;45894;-41
2023/10/30 03:13:32;;;;;;;;;4.67;2.00;;;;;12.78;85.60;99616.09;5035873;28;45283;-39
2023/10/30 03:15:57;;;;;;;;;2.00;2.00;;;;;12.71;85.70;99608.00;5035910;28;45408;-40
2023/10/30 03:18:23;;;;;;;;;5.33;2.67;;;;;12.72;86.42;99611.50;5035470;28;45435;-41
2023/10/30 03:20:48;;;;;;;;;1.00;1.00;;;;;12.75;85.47;99605.81;5035445;28;47669;-41
2023/10/30 03:23:14;;;;;;;;;2.00;2.00;;;;;12.71;85.38;99597.34;5035591;28;45423;-41
2023/10/30 03:25:39;;;;;;;;;8.00;3.00;;;;;12.73;85.38;99599.84;5035770;28;45265;-42
2023/10/30 03:28:04;;;;;;;;;6.00;2.33;;;;;12.71;85.49;99594.69;5035142;28;45510;-39
2023/10/30 03:30:33;;;;;;;;;5.33;2.00;;;;;12.62;86.10;99581.66;5035653;28;47068;-40
2023/10/30 03:32:58;;;;;;;;;3.67;1.00;;;;;12.63;86.63;99588.63;5035532;28;45280;-40
2023/10/30 03:35:24;;;;;;;;;8.00;1.00;;;;;12.64;86.11;99590.28;5035198;28;50058;-41
2023/10/30 03:37:49;;;;;;;;;5.67;1.00;;;;;12.66;85.65;99578.41;5035875;28;45400;-41
2023/10/30 03:40:14;;;;;;;;;1.00;1.00;;;;;12.68;85.86;99576.41;5034591;28;46097;-41
2023/10/30 03:42:40;;;;;;;;;2.00;2.00;;;;;12.68;85.92;99580.88;5035362;28;45325;-41
2023/10/30 03:45:07;;;;;;;;;1.33;1.00;;;;;12.67;85.57;99582.72;5035764;28;45368;-40
2023/10/30 03:47:32;;;;;;;;;2.00;1.00;;;;;12.68;85.79;99594.22;5035132;28;45684;-40
2023/10/30 03:49:58;;;;;;;;;1.00;1.00;;;;;12.62;85.70;99581.66;5035266;28;46293;-40
2023/10/30 03:52:23;;;;;;;;;3.67;1.67;;;;;12.69;85.92;99588.72;5035389;28;45438;-41
2023/10/30 03:54:48;;;;;;;;;2.00;2.00;;;;;12.73;85.63;99589.16;5035264;28;47752;-40
2023/10/30 03:57:14;;;;;;;;;4.00;1.67;;;;;12.73;85.38;99584.66;5035151;28;45384;-38
2023/10/30 03:59:39;;;;;;;;;4.00;1.00;;;;;12.74;84.77;99577.47;5034848;28;45401;-41
2023/10/30 04:02:04;;;;;;;;;4.67;3.00;;;;;12.65;84.87;99560.75;5037938;28;45411;-40
2023/10/30 04:04:30;;;;;;;;;2.33;0.67;;;;;12.71;85.05;99572.50;5020695;28;45832;-40
2023/10/30 04:06:55;;;;;;;;;2.00;1.00;;;;;12.69;85.09;99572.72;5038717;28;45302;-39
2023/10/30 04:09:20;;;;;;;;;1.00;1.00;;;;;12.69;84.71;99569.22;5038320;28;46229;-40
2023/10/30 04:11:46;;;;;;;;;1.00;1.00;;;;;12.69;85.10;99572.72;5038376;28;45351;-41
2023/10/30 04:14:12;;;;;;;;;1.67;1.33;;;;;12.69;84.81;99572.72;5038847;28;45427;-42
2023/10/30 04:16:37;;;;;;;;;4.67;2.00;;;;;12.67;85.34;99553.38;5038554;28;45336;-40
2023/10/30 04:19:02;;;;;;;;;5.00;2.67;;;;;12.68;85.21;99554.19;5038149;28;49976;-41
2023/10/30 04:21:28;;;;;;;;;4.00;1.67;;;;;12.69;85.23;99548.69;5038498;28;45313;-41
2023/10/30 04:23:54;;;;;;;;;3.67;2.33;;;;;12.72;85.06;99559.00;5038409;28;45319;-41
2023/10/30 04:26:19;;;;;;;;;4.00;2.33;;;;;12.74;85.02;99562.28;5038527;28;45175;-40
2023/10/30 04:28:45;;;;;;;;;1.67;1.00;;;;;12.73;84.58;99570.50;5038073;28;45407;-41
2023/10/30 04:31:10;;;;;;;;;2.00;1.67;;;;;12.73;84.42;99568.66;5038421;28;45400;-41
2023/10/30 04:33:36;;;;;;;;;2.00;2.00;;;;;12.79;84.12;99583.06;5038314;28;45336;-43
2023/10/30 04:36:02;;;;;;;;;1.00;1.00;;;;;12.78;84.10;99583.25;5038294;28;45418;-41
2023/10/30 04:38:31;;;;;;;;;3.00;2.00;;;;;12.80;84.37;99586.56;5037898;28;47090;-41
2023/10/30 04:40:57;;;;;;;;;2.33;2.00;;;;;12.70;84.15;99560.19;5038133;28;45443;-40
2023/10/30 04:43:22;;;;;;;;;5.33;1.67;;;;;12.76;83.99;99563.94;5038558;28;45287;-40
2023/10/30 04:45:47;;;;;;;;;5.00;2.00;;;;;12.80;84.28;99578.53;5020493;28;45317;-42
2023/10/30 04:48:13;;;;;;;;;2.00;2.00;;;;;12.81;83.96;99583.72;5037968;28;46251;-42
2023/10/30 04:50:38;;;;;;;;;1.33;1.33;;;;;12.71;84.73;99570.66;5037778;28;45727;-44
2023/10/30 04:53:03;;;;;;;;;3.00;1.33;;;;;12.79;85.30;99579.56;5038058;28;45320;-44
2023/10/30 04:55:29;;;;;;;;;3.00;1.00;;;;;12.76;85.66;99578.09;5038803;28;45203;-44
2023/10/30 04:57:54;;;;;;;;;4.67;2.00;;;;;12.72;86.64;99563.47;5037925;28;45990;-40
2023/10/30 05:00:19;;;;;;;;;3.00;2.00;;;;;12.73;86.36;99565.97;5037469;28;45328;-41
2023/10/30 05:02:47;;;;;;;;;5.33;2.67;;;;;12.73;85.92;99560.63;5037880;28;45372;-40
2023/10/30 05:05:14;;;;;;;;;0.00;0.00;;;;;12.34;85.98;99493.50;5037609;28;45484;-43
2023/10/30 05:07:40;;;;;;;;;1.00;1.00;;;;;12.72;86.09;99551.00;5037334;28;47045;-42
2023/10/30 05:10:05;;;;;;;;;3.67;2.00;;;;;12.75;85.78;99552.44;5037347;28;45470;-40
2023/10/30 05:12:31;;;;;;;;;0.00;0.00;;;;;12.75;85.74;99541.75;5036686;28;45404;-42
2023/10/30 05:14:58;;;;;;;;;3.00;1.00;;;;;12.70;85.83;99536.16;5037818;28;46258;-44
2023/10/30 05:17:24;;;;;;;;;4.00;2.67;;;;;12.68;86.61;99533.72;5037226;28;45242;-40
2023/10/30 05:19:49;;;;;;;;;2.00;2.00;;;;;12.74;86.87;99538.28;5037030;28;45289;-46
2023/10/30 05:22:15;;;;;;;;;1.00;1.00;;;;;12.73;87.13;99525.94;5036856;28;45552;-45
2023/10/30 05:24:40;;;;;;;;;2.33;1.00;;;;;12.74;87.11;99524.09;5037578;28;45403;-41
2023/10/30 05:27:05;;;;;;;;;1.00;1.00;;;;;12.72;87.05;99536.78;5037259;28;46016;-43
2023/10/30 05:29:31;;;;;;;;;3.67;2.00;;;;;12.64;87.31;99516.44;5037149;28;48992;-41
2023/10/30 05:31:57;;;;;;;;;6.00;2.00;;;;;12.77;87.26;99533.56;5019618;28;45357;-41
2023/10/30 05:34:26;;;;;;;;;1.33;1.33;;;;;12.82;87.48;99525.81;5036413;28;45489;-41
2023/10/30 05:36:51;;;;;;;;;5.00;2.00;;;;;12.82;86.93;99518.66;5036731;28;46222;-41
2023/10/30 05:39:16;;;;;;;;;3.00;1.00;;;;;12.78;87.33;99520.03;5036847;28;49122;-40
2023/10/30 05:41:42;;;;;;;;;3.00;1.67;;;;;12.79;87.30;99521.69;5037087;28;45593;-41
2023/10/30 05:44:07;;;;;;;;;1.67;1.67;;;;;12.79;87.14;99508.34;5037350;28;45428;-41
2023/10/30 05:46:32;;;;;;;;;2.00;1.00;;;;;12.81;87.19;99508.13;5036776;28;47255;-45
2023/10/30 05:48:58;;;;;;;;;2.00;2.00;;;;;12.82;86.65;99518.66;5037066;28;45345;-44
2023/10/30 05:51:23;;;;;;;;;2.67;1.00;;;;;12.78;86.94;99512.03;5037144;28;45347;-43
2023/10/30 05:53:50;;;;;;;;;3.00;2.00;;;;;12.82;87.47;99528.50;5037165;28;45478;-41
2023/10/30 05:56:16;;;;;;;;;2.00;1.67;;;;;12.79;87.60;99523.53;5036706;28;46323;-41
2023/10/30 05:58:41;;;;;;;;;4.00;2.00;;;;;12.80;87.73;99498.50;5036635;28;45365;-44
2023/10/30 06:01:06;;;;;;;;;2.33;1.00;;;;;12.82;87.90;99499.13;5036592;28;45272;-40
2023/10/30 06:03:32;;;;;;;;;2.00;0.67;;;;;12.80;87.91;99501.97;5037071;28;45416;-41
2023/10/30 06:05:57;;;;;;;;;2.33;2.33;;;;;12.80;87.94;99493.97;5001967;28;46019;-40
2023/10/30 06:08:23;;;;;;;;;0.00;0.00;;;;;12.80;88.42;99496.66;5036494;28;50524;-42
2023/10/30 06:10:49;;;;;;;;;5.00;2.00;;;;;12.82;88.67;99499.13;5036750;28;45408;-43
2023/10/30 06:13:15;;;;;;;;;4.00;1.00;;;;;12.84;88.66;99505.09;5036552;28;45480;-40
2023/10/30 06:15:41;;;;;;;;;1.00;1.00;;;;;12.86;88.00;99517.25;5036423;28;46877;-42
2023/10/30 06:18:06;;;;;;;;;1.00;1.00;;;;;12.90;88.44;99531.03;5036707;28;45415;-40
2023/10/30 06:20:31;;;;;;;;;3.00;1.33;;;;;12.93;88.36;99520.78;5036426;28;45496;-41
2023/10/30 06:22:57;;;;;;;;;2.00;1.00;;;;;12.99;88.01;99516.53;5036711;28;45394;-42
2023/10/30 06:25:25;;;;;;;;;1.00;1.00;;;;;13.01;88.31;99505.66;5035263;28;45407;-41
2023/10/30 06:27:52;;;;;;;;;2.67;2.67;;;;;12.95;89.03;99491.25;5036141;28;45352;-41
2023/10/30 06:30:17;;;;;;;;;3.00;3.00;;;;;12.99;88.84;99487.16;5035986;28;45423;-43
2023/10/30 06:32:43;;;;;;;;;3.00;1.00;;;;;13.02;88.58;99491.28;5036339;28;45265;-43
2023/10/30 06:35:09;;;;;;;;;1.00;1.00;;;;;12.91;89.07;99488.13;5036174;28;45347;-42
2023/10/30 06:37:35;;;;;;;;;5.00;2.00;;;;;12.97;88.65;99508.69;5035773;28;45315;-43
2023/10/30 06:40:00;;;;;;;;;2.00;2.00;;;;;13.02;88.71;99526.84;5036164;28;45366;-42
2023/10/30 06:42:26;;;;;;;;;8.00;2.00;;;;;13.02;89.71;99539.34;5036188;28;45407;-42
2023/10/30 06:44:51;;;;;;;;;3.33;2.00;;;;;13.09;89.05;99537.56;5035787;28;46019;-45
2023/10/30 06:47:17;;;;;;;;;7.33;4.00;;;;;13.08;89.34;99534.06;5036047;28;45415;-41
2023/10/30 06:49:43;;;;;;;;;5.00;3.00;;;;;13.13;89.59;99536.97;5035000;28;45953;-41
2023/10/30 06:52:08;;;;;;;;;4.00;3.00;;;;;13.16;90.14;99533.94;5036601;28;45274;-42
2023/10/30 06:54:34;;;;;;;;;5.00;3.00;;;;;13.19;90.67;99532.72;5036051;28;46088;-43
2023/10/30 06:56:59;;;;;;;;;3.67;3.00;;;;;13.14;90.95;99525.25;5036130;28;45367;-41
2023/10/30 06:59:24;;;;;;;;;4.00;3.67;;;;;13.14;90.43;99519.09;5036039;28;45332;-41
2023/10/30 07:01:50;;;;;;;;;7.00;5.00;;;;;13.18;90.80;99512.38;5035093;28;45244;-43
2023/10/30 07:04:16;;;;;;;;;8.33;3.00;;;;;13.21;90.84;99506.63;5035886;28;46347;-41
2023/10/30 07:06:43;;;;;;;;;2.33;2.00;;;;;13.24;90.61;99498.28;5035768;28;45369;-40
2023/10/30 07:09:09;;;;;;;;;4.00;3.00;;;;;13.25;90.80;99493.75;5035207;28;45446;-38
2023/10/30 07:11:39;;;;;;;;;4.00;4.00;;;;;13.25;90.30;99489.25;5036505;28;45431;-41
2023/10/30 07:14:05;;;;;;;;;49.67;37.67;;;;;13.25;90.00;99496.44;5034784;28;45452;-43
2023/10/30 07:16:32;;;;;;;;;13.00;11.33;;;;;13.25;90.65;99480.41;5035851;28;45468;-40
2023/10/30 07:18:58;;;;;;;;;4.00;4.00;;;;;13.22;90.44;99485.09;5036164;28;45372;-40
2023/10/30 07:21:25;;;;;;;;;4.33;3.33;;;;;13.15;90.84;99472.72;5035587;28;45494;-42
2023/10/30 07:23:50;;;;;;;;;6.67;3.00;;;;;13.20;90.72;99484.47;5017347;28;46502;-41
2023/10/30 07:26:16;;;;;;;;;3.00;1.67;;;;;13.23;90.74;99492.13;5035558;28;45447;-39
2023/10/30 07:28:44;;;;;;;;;3.67;2.33;;;;;13.25;91.26;99483.91;5035472;28;45451;-40
2023/10/30 07:31:10;;;;;;;;;6.00;3.00;;;;;13.23;91.15;99477.91;5035803;28;45238;-40
2023/10/30 07:33:35;;;;;;;;;3.00;2.00;;;;;13.25;92.17;99483.09;5035346;28;45341;-41
2023/10/30 07:36:01;;;;;;;;;6.33;4.00;;;;;13.21;91.82;99470.06;5018709;28;45435;-40
2023/10/30 07:38:27;;;;;;;;;5.00;3.00;;;;;13.29;92.05;99473.66;5039173;28;45316;-41
2023/10/30 07:40:53;;;;;;;;;1.33;1.33;;;;;13.27;92.06;99475.69;5039058;28;45499;-39
2023/10/30 07:43:19;;;;;;;;;3.00;3.00;;;;;13.22;92.48;99466.41;5038870;28;45325;-41
2023/10/30 07:45:44;;;;;;;;;5.33;4.00;;;;;13.29;91.85;99469.13;5038607;28;45328;-40
2023/10/30 07:48:10;;;;;;;;;2.00;1.33;;;;;13.33;91.66;99462.38;5038684;28;45412;-41
2023/10/30 07:50:36;;;;;;;;;67.00;52.33;;;;;13.36;91.63;99461.19;5038605;28;45429;-41
2023/10/30 07:53:01;;;;;;;;;44.00;31.67;;;;;13.40;91.30;99465.09;5038409;28;46284;-44
2023/10/30 07:55:27;;;;;;;;;6.67;6.00;;;;;13.37;90.95;99479.69;5038707;28;45379;-41
2023/10/30 07:57:52;;;;;;;;;5.00;4.00;;;;;13.40;90.87;99484.63;5038785;28;45249;-41
2023/10/30 08:00:18;;;;;;;;;9.00;4.00;;;;;13.39;91.05;99482.13;5038861;28;45496;-43
2023/10/30 08:02:46;;;;;;;;;4.00;2.00;;;;;13.41;91.08;99478.25;5038451;28;45853;-39
2023/10/30 08:05:14;;;;;;;;;3.00;2.00;;;;;13.43;91.22;99467.38;5038056;28;45482;-42
2023/10/30 08:07:44;;;;;;;;;4.00;4.00;;;;;13.33;91.80;99442.88;5038609;28;45348;-42
2023/10/30 08:10:11;;;;;;;;;4.00;4.00;;;;;13.42;91.27;99453.19;5038637;28;45383;-42
2023/10/30 08:12:37;;;;;;;;;3.67;2.67;;;;;13.42;91.15;99461.22;5038223;28;46398;-40
2023/10/30 08:15:03;;;;;;;;;3.00;3.00;;;;;13.39;91.66;99455.44;5038285;28;45322;-41
2023/10/30 08:17:29;;;;;;;;;2.67;2.00;;;;;13.31;91.86;99445.72;5038404;28;45431;-39
2023/10/30 08:19:54;;;;;;;;;3.00;2.33;;;;;13.42;92.34;99449.69;5037725;28;45502;-39
2023/10/30 08:22:21;;;;;;;;;2.67;2.67;;;;;13.43;92.19;99468.19;5038060;28;45552;-40
2023/10/30 08:24:47;;;;;;;;;3.00;2.00;;;;;13.45;92.22;99468.84;5038552;28;45495;-43
2023/10/30 08:27:12;;;;;;;;;2.00;2.00;;;;;13.47;92.01;99469.44;5038304;28;45322;-40
2023/10/30 08:29:37;;;;;;;;;1.00;1.00;;;;;13.45;92.25;99476.03;5038417;28;45395;-41
2023/10/30 08:32:03;;;;;;;;;2.00;2.00;;;;;13.46;92.66;99483.84;5038191;28;45415;-41
2023/10/30 08:34:28;;;;;;;;;4.00;3.00;;;;;13.52;92.25;99470.72;5038239;28;45316;-41
2023/10/30 08:36:53;;;;;;;;;3.00;3.00;;;;;13.56;92.51;99462.09;5038045;28;45354;-39
2023/10/30 08:39:19;;;;;;;;;3.00;3.00;;;;;13.60;92.24;99460.69;5038174;28;45460;-40
2023/10/30 08:41:44;;;;;;;;;3.00;1.33;;;;;13.61;91.78;99464.19;5019948;28;52588;-40
2023/10/30 08:44:09;;;;;;;;;0.00;0.00;;;;;13.60;91.61;99462.53;5038036;28;45324;-40
2023/10/30 08:46:35;;;;;;;;;1.67;1.00;;;;;13.60;91.60;99460.69;5037787;28;45325;-41
2023/10/30 08:49:00;;;;;;;;;8.00;4.00;;;;;13.60;92.02;99463.34;5036803;28;45163;-39
2023/10/30 08:51:25;;;;;;;;;3.00;3.00;;;;;13.63;92.06;99462.16;5037713;28;46000;-39
2023/10/30 08:53:51;;;;;;;;;3.00;3.00;;;;;13.62;91.92;99447.97;5019930;28;45424;-40
2023/10/30 08:56:17;;;;;;;;;5.00;2.67;;;;;13.53;91.63;99413.59;5037991;28;45355;-40
2023/10/30 08:58:43;;;;;;;;;8.67;3.00;;;;;13.66;92.40;99438.53;5038142;28;45404;-40
2023/10/30 09:01:08;;;;;;;;;2.00;2.00;;;;;13.68;92.40;99435.66;5037238;28;46188;-40
2023/10/30 09:03:34;;;;;;;;;3.00;1.33;;;;;13.66;91.88;99411.81;5037781;28;45415;-40
2023/10/30 09:05:59;;;;;;;;;2.00;2.00;;;;;13.72;91.51;99445.75;5037557;28;45564;-39
2023/10/30 09:08:25;;;;;;;;;2.00;2.00;;;;;13.73;91.41;99434.03;5038051;28;45471;-40
2023/10/30 09:10:51;;;;;;;;;2.00;2.00;;;;;13.75;91.47;99425.81;5037534;28;46151;-40
2023/10/30 09:13:16;;;;;;;;;1.00;1.00;;;;;13.75;91.24;99423.16;5037401;28;45405;-41
2023/10/30 09:15:41;;;;;;;;;0.67;0.00;;;;;13.77;91.28;99418.41;5037618;28;45580;-39
2023/10/30 09:18:07;;;;;;;;;1.00;1.00;;;;;13.77;90.95;99413.06;5037763;28;45394;-40
2023/10/30 09:20:32;;;;;;;;;1.00;1.00;;;;;13.75;90.88;99428.50;5037224;28;48642;-41
2023/10/30 09:22:57;;;;;;;;;2.00;2.00;;;;;13.67;91.09;99426.00;5037135;28;49326;-41
2023/10/30 09:25:23;;;;;;;;;5.67;3.00;;;;;13.67;91.42;99429.47;5037226;28;45946;-41
2023/10/30 09:27:50;;;;;;;;;1.33;1.33;;;;;13.67;91.80;99440.16;5037221;28;45340;-41
2023/10/30 09:30:16;;;;;;;;;3.00;2.00;;;;;13.67;91.44;99448.19;5037114;28;46194;-38
2023/10/30 09:32:41;;;;;;;;;3.67;3.00;;;;;13.65;91.55;99444.91;5037229;28;45232;-40
2023/10/30 09:35:07;;;;;;;;;2.00;2.00;;;;;13.66;92.10;99453.75;5037086;28;45195;-40
2023/10/30 09:37:33;;;;;;;;;4.00;2.67;;;;;13.58;92.77;99437.88;5037259;28;45455;-41
2023/10/30 09:39:59;;;;;;;;;5.33;2.33;;;;;13.65;92.45;99449.41;5036858;28;46906;-41
2023/10/30 09:42:24;;;;;;;;;4.33;2.33;;;;;13.57;93.05;99453.09;5036918;28;45386;-41
2023/10/30 09:44:49;;;;;;;;;5.00;2.00;;;;;13.61;92.48;99448.16;5037131;28;45516;-41
2023/10/30 09:47:16;;;;;;;;;3.33;2.00;;;;;13.61;92.93;99438.31;5036996;28;45405;-39
2023/10/30 09:49:43;;;;;;;;;3.00;3.00;;;;;13.61;93.33;99435.63;5036732;28;45443;-40
2023/10/30 09:52:11;;;;;;;;;1.00;1.00;;;;;13.56;93.39;99440.72;5036597;28;45278;-41
2023/10/30 09:54:37;;;;;;;;;7.00;3.00;;;;;13.53;93.79;99438.47;5036840;28;45241;-48
2023/10/30 09:57:03;;;;;;;;;4.00;3.00;;;;;13.55;93.95;99438.25;5036923;28;45287;-40
2023/10/30 09:59:32;;;;;;;;;4.00;2.00;;;;;13.60;94.10;99433.13;5036282;28;46127;-40
2023/10/30 10:01:57;;;;;;;;;3.00;3.00;;;;;13.54;93.32;99418.75;5036571;28;45468;-41
2023/10/30 10:04:22;;;;;;;;;5.00;2.33;;;;;13.61;94.07;99424.94;5036943;28;45400;-40
2023/10/30 10:06:50;;;;;;;;;3.00;2.00;;;;;13.64;94.39;99416.50;5036652;28;45335;-40
2023/10/30 10:09:16;;;;;;;;;7.33;5.67;;;;;13.68;93.92;99406.25;5036309;28;45502;-41
2023/10/30 10:11:41;;;;;;;;;5.33;3.00;;;;;13.70;93.90;99397.03;5036636;28;45835;-41
2023/10/30 10:14:07;;;;;;;;;7.00;5.00;;;;;13.72;93.75;99392.28;5036497;28;45846;-39
2023/10/30 10:16:34;;;;;;;;;8.67;7.00;;;;;13.74;94.55;99397.44;5036908;28;45584;-40
2023/10/30 10:19:19;;;;;;;;;7.67;7.67;;;;;13.72;94.85;99394.13;5036390;28;45383;-40
2023/10/30 10:21:51;;;;;;;;;5.67;5.67;;;;;13.76;95.06;99391.91;5036078;28;45377;-38
2023/10/30 10:24:30;;;;;;;;;7.00;5.00;;;;;13.75;94.85;99384.91;5036649;28;45364;-40
2023/10/30 10:27:06;;;;;;;;;6.33;6.33;;;;;13.78;94.78;99374.66;5036678;28;45419;-40
2023/10/30 10:29:33;;;;;;;;;8.33;7.00;;;;;13.86;94.83;99376.28;5036112;28;46364;-39
2023/10/30 10:31:58;;;;;;;;;8.00;7.67;;;;;13.88;94.46;99374.25;5036088;28;45427;-40
2023/10/30 10:34:24;;;;;;;;;16.33;9.00;;;;;13.84;95.82;99367.66;5018449;28;45444;-40
2023/10/30 10:36:50;;;;;;;;;13.00;7.00;;;;;13.79;96.37;99357.59;5036588;28;45359;-39
2023/10/30 10:39:15;;;;;;;;;9.33;8.00;;;;;13.87;95.86;99353.91;5036074;28;46070;-42
2023/10/30 10:41:42;;;;;;;;;4.00;4.00;;;;;13.94;96.12;99342.19;5036215;28;45366;-41
2023/10/30 10:44:09;;;;;;;;;5.33;5.33;;;;;13.94;95.92;99336.81;5035177;28;45533;-41
2023/10/30 10:46:34;;;;;;;;;8.67;5.67;;;;;13.83;95.26;99308.03;5036167;28;45436;-41
2023/10/30 10:49:01;;;;;;;;;8.33;7.67;;;;;14.06;94.71;99331.72;5017769;28;45470;-39
2023/10/30 10:51:35;;;;;;;;;9.00;8.00;;;;;14.13;94.76;99324.53;5035935;28;45339;-38
2023/10/30 10:54:10;;;;;;;;;11.00;10.00;;;;;14.19;94.50;99330.91;5035969;28;45397;-39
2023/10/30 10:56:37;;;;;;;;;10.00;8.33;;;;;14.19;94.17;99333.56;5035347;28;45540;-39
2023/10/30 10:59:11;;;;;;;;;8.67;7.00;;;;;14.20;94.83;99313.84;5036053;28;46103;-39
2023/10/30 11:01:41;;;;;;;;;8.33;6.67;;;;;14.14;95.17;99306.63;5017569;28;45457;-40
2023/10/30 11:04:08;;;;;;;;;14.67;12.33;;;;;14.19;94.41;99323.69;5036022;28;45335;-41
2023/10/30 11:06:38;;;;;;;;;10.00;9.00;;;;;14.23;94.84;99319.59;5035736;28;45488;-41
2023/10/30 11:09:18;;;;;;;;;10.67;8.33;;;;;14.27;95.63;99311.16;5034615;28;46714;-41
2023/10/30 11:11:51;;;;;;;;;17.00;10.00;;;;;14.23;96.09;99300.88;5037800;28;45372;-41
2023/10/30 11:14:22;;;;;;;;;7.00;5.00;;;;;14.29;96.33;99295.75;5039772;28;45273;-41
2023/10/30 11:17:02;;;;;;;;;10.67;9.00;;;;;14.31;96.28;99296.34;5039396;28;45411;-40
2023/10/30 11:19:28;;;;;;;;;14.00;10.00;;;;;14.36;95.29;99312.59;5039129;28;45379;-40
2023/10/30 11:21:54;;;;;;;;;13.00;11.00;;;;;14.40;95.33;99309.31;5039232;28;45373;-39
2023/10/30 11:24:36;;;;;;;;;17.33;15.00;;;;;14.45;94.92;99312.19;5039382;28;45431;-40
2023/10/30 11:27:27;;;;;;;;;12.33;11.00;;;;;14.44;94.71;99307.03;5039511;28;45385;-42